createdAt,value
2023-05-05T00:00:19.048Z,5
2023-05-05T00:05:18.995Z,3
2023-05-05T00:10:15.848Z,2
2023-05-05T00:15:15.805Z,3
2023-05-05T00:20:16.059Z,3
2023-05-05T00:25:16.012Z,3
2023-05-05T00:30:18.992Z,3
2023-05-05T00:35:18.996Z,4
2023-05-05T00:40:18.951Z,3
2023-05-05T00:45:18.982Z,4
2023-05-05T00:50:18.961Z,4
2023-05-05T00:55:18.971Z,3
2023-05-05T01:00:16.036Z,3
2023-05-05T01:05:16.060Z,5
2023-05-05T01:10:20.203Z,5
2023-05-05T01:15:19.093Z,5
2023-05-05T01:20:19.021Z,2
2023-05-05T01:25:18.999Z,3
2023-05-05T01:30:19.002Z,3
2023-05-05T01:35:16.020Z,4
2023-05-05T01:40:19.077Z,3
2023-05-05T01:45:19.074Z,3
2023-05-05T01:50:19.037Z,2
2023-05-05T01:55:19.039Z,3
2023-05-05T02:00:19.034Z,3
2023-05-05T02:05:16.026Z,2
2023-05-05T02:10:19.192Z,3
2023-05-05T02:15:19.064Z,4
2023-05-05T02:20:19.051Z,2
2023-05-05T02:25:19.064Z,4
2023-05-05T02:30:16.101Z,3
2023-05-05T02:35:16.189Z,4
2023-05-05T02:40:19.052Z,4
2023-05-05T02:45:15.870Z,5
2023-05-05T02:50:19.074Z,5
2023-05-05T02:55:16.087Z,5
2023-05-05T03:00:19.119Z,4
2023-05-05T03:05:19.053Z,7
2023-05-05T03:10:16.169Z,5
2023-05-05T03:15:16.137Z,4
2023-05-05T03:20:19.119Z,6
2023-05-05T03:25:16.095Z,5
2023-05-05T03:30:19.082Z,7
2023-05-05T03:35:19.045Z,4
2023-05-05T03:40:19.074Z,5
2023-05-05T03:45:19.049Z,6
2023-05-05T03:50:16.122Z,4
2023-05-05T03:55:16.137Z,6
2023-05-05T04:00:20.381Z,4
2023-05-05T04:05:20.340Z,4
2023-05-05T04:10:20.388Z,6
2023-05-05T04:15:20.371Z,5
2023-05-05T04:20:20.310Z,5
2023-05-05T04:25:17.390Z,6
2023-05-05T04:30:17.394Z,3
2023-05-05T04:35:17.387Z,4
2023-05-05T04:40:18.360Z,4
2023-05-05T04:45:18.330Z,5
2023-05-05T04:50:18.388Z,6
2023-05-05T04:55:20.456Z,5
2023-05-05T05:00:18.361Z,5
2023-05-05T05:05:15.440Z,7
2023-05-05T05:10:15.417Z,7
2023-05-05T05:15:18.339Z,7
2023-05-05T05:20:18.342Z,11
2023-05-05T05:25:18.337Z,9
2023-05-05T05:30:18.336Z,7
2023-05-05T05:35:18.429Z,4
2023-05-05T05:40:15.464Z,5
2023-05-05T05:45:15.445Z,4
2023-05-05T05:50:18.378Z,6
2023-05-05T05:55:18.387Z,5
2023-05-05T06:00:18.433Z,8
2023-05-05T06:05:18.353Z,5
2023-05-05T06:10:26.667Z,7
2023-05-05T06:15:15.396Z,4
2023-05-05T06:20:15.400Z,4
2023-05-05T06:25:15.506Z,6
2023-05-05T06:30:18.469Z,5
2023-05-05T06:35:18.384Z,7
2023-05-05T06:40:18.432Z,5
2023-05-05T06:45:15.498Z,8
2023-05-05T06:50:15.425Z,7
2023-05-05T06:55:15.437Z,6
2023-05-05T07:00:18.416Z,4
2023-05-05T07:05:18.443Z,6
2023-05-05T07:10:18.404Z,8
2023-05-05T07:15:27.951Z,6
2023-05-05T07:20:15.460Z,4
2023-05-05T07:25:15.510Z,4
2023-05-05T07:30:19.362Z,5
2023-05-05T07:35:18.398Z,7
2023-05-05T07:40:18.397Z,7
2023-05-05T07:45:18.617Z,5
2023-05-05T07:50:15.487Z,7
2023-05-05T07:55:15.503Z,6
2023-05-05T08:00:18.443Z,7
2023-05-05T08:05:18.452Z,6
2023-05-05T08:10:15.478Z,6
2023-05-05T08:15:15.445Z,5
2023-05-05T08:20:18.471Z,5
2023-05-05T08:25:18.476Z,9
2023-05-05T08:30:18.510Z,10
2023-05-05T08:35:18.452Z,8
2023-05-05T08:40:15.559Z,6
2023-05-05T08:45:18.457Z,9
2023-05-05T08:50:15.534Z,8
2023-05-05T08:55:18.501Z,9
2023-05-05T09:00:18.502Z,6
2023-05-05T09:05:15.544Z,6
2023-05-05T09:10:18.556Z,6
2023-05-05T09:15:18.482Z,8
2023-05-05T09:20:15.558Z,6
2023-05-05T09:25:18.468Z,8
2023-05-05T09:30:18.572Z,7
2023-05-05T09:35:15.570Z,7
2023-05-05T09:40:15.516Z,5
2023-05-05T09:45:18.641Z,5
2023-05-05T09:50:19.110Z,8
2023-05-05T09:55:18.596Z,7
2023-05-05T10:00:18.544Z,6
2023-05-05T10:05:18.744Z,6
2023-05-05T10:10:15.404Z,8
2023-05-05T10:15:18.539Z,10
2023-05-05T10:20:18.588Z,8
2023-05-05T10:25:18.578Z,6
2023-05-05T10:30:15.573Z,6
2023-05-05T10:35:18.548Z,7
2023-05-05T10:40:18.534Z,8
2023-05-05T10:45:15.375Z,7
2023-05-05T10:50:18.572Z,7
2023-05-05T10:55:18.555Z,7
2023-05-05T11:00:18.545Z,6
2023-05-05T11:05:18.676Z,11
2023-05-05T11:10:18.516Z,11
2023-05-05T11:15:18.541Z,10
2023-05-05T11:20:18.640Z,13
2023-05-05T11:25:15.534Z,12
2023-05-05T11:30:15.378Z,7
2023-05-05T11:35:18.542Z,10
2023-05-05T11:40:15.613Z,12
2023-05-05T11:45:18.551Z,6
2023-05-05T11:50:18.585Z,9
2023-05-05T11:55:18.516Z,9
2023-05-05T12:00:15.605Z,8
2023-05-05T12:05:15.603Z,8
2023-05-05T12:10:15.583Z,10
2023-05-05T12:15:18.634Z,11
2023-05-05T12:20:15.585Z,9
2023-05-05T12:25:18.656Z,10
2023-05-05T12:30:18.807Z,7
2023-05-05T12:35:18.567Z,7
2023-05-05T12:40:18.556Z,9
2023-05-05T12:45:18.561Z,9
2023-05-05T12:50:18.586Z,7
2023-05-05T12:55:18.611Z,9
2023-05-05T13:00:15.755Z,9
2023-05-05T13:05:18.586Z,9
2023-05-05T13:10:18.686Z,9
2023-05-05T13:15:18.620Z,7
2023-05-05T13:20:15.622Z,8
2023-05-05T13:25:18.606Z,8
2023-05-05T13:30:18.606Z,10
2023-05-05T13:35:18.604Z,8
2023-05-05T13:40:18.581Z,8
2023-05-05T13:45:18.585Z,8
2023-05-05T13:50:18.601Z,10
2023-05-05T13:55:18.619Z,8
2023-05-05T14:00:18.582Z,13
2023-05-05T14:05:18.577Z,12
2023-05-05T14:10:15.706Z,12
2023-05-05T14:15:18.603Z,8
2023-05-05T14:20:18.662Z,11
2023-05-05T14:25:18.618Z,8
2023-05-05T14:30:18.697Z,7
2023-05-05T14:35:18.591Z,7
2023-05-05T14:40:18.660Z,6
2023-05-05T14:45:18.648Z,11
2023-05-05T14:50:15.712Z,8
2023-05-05T14:55:15.739Z,10
2023-05-05T15:00:18.665Z,9
2023-05-05T15:05:15.737Z,11
2023-05-05T15:10:15.768Z,8
2023-05-05T15:15:15.718Z,12
2023-05-05T15:20:18.792Z,11
2023-05-05T15:25:15.573Z,12
2023-05-05T15:30:15.833Z,8
2023-05-05T15:35:15.728Z,9
2023-05-05T15:40:18.730Z,6
2023-05-05T15:45:18.698Z,6
2023-05-05T15:50:15.752Z,5
2023-05-05T15:55:18.704Z,7
2023-05-05T16:00:15.692Z,6
2023-05-05T16:05:20.641Z,7
2023-05-05T16:10:18.726Z,6
2023-05-05T16:15:15.740Z,6
2023-05-05T16:20:18.702Z,8
2023-05-05T16:25:18.638Z,7
2023-05-05T16:30:15.786Z,6
2023-05-05T16:35:15.734Z,5
2023-05-05T16:40:15.536Z,6
2023-05-05T16:45:15.773Z,4
2023-05-05T16:50:18.715Z,4
2023-05-05T16:55:18.709Z,7
2023-05-05T17:00:18.677Z,8
2023-05-05T17:05:18.759Z,7
2023-05-05T17:10:18.745Z,8
2023-05-05T17:15:15.837Z,9
2023-05-05T17:20:15.760Z,6
2023-05-05T17:25:15.813Z,5
2023-05-05T17:30:15.803Z,7
2023-05-05T17:35:18.782Z,5
2023-05-05T17:40:18.777Z,5
2023-05-05T17:45:18.732Z,5
2023-05-05T17:50:18.718Z,8
2023-05-05T17:55:18.724Z,10
2023-05-05T18:00:15.747Z,7
2023-05-05T18:05:18.770Z,7
2023-05-05T18:10:18.747Z,6
2023-05-05T18:15:18.714Z,5
2023-05-05T18:20:18.727Z,6
2023-05-05T18:25:18.746Z,8
2023-05-05T18:30:15.762Z,7
2023-05-05T18:35:15.763Z,5
2023-05-05T18:40:18.772Z,5
2023-05-05T18:45:19.116Z,6
2023-05-05T18:50:18.864Z,8
2023-05-05T18:55:18.770Z,8
2023-05-05T19:00:15.791Z,9
2023-05-05T19:05:15.863Z,7
2023-05-05T19:10:15.833Z,8
2023-05-05T19:15:18.825Z,8
2023-05-05T19:20:15.602Z,11
2023-05-05T19:25:18.796Z,11
2023-05-05T19:30:15.848Z,11
2023-05-05T19:35:18.761Z,12
2023-05-05T19:40:15.808Z,13
2023-05-05T19:45:18.806Z,12
2023-05-05T19:50:18.795Z,13
2023-05-05T19:55:15.810Z,12
2023-05-05T20:00:18.855Z,13
2023-05-05T20:05:15.870Z,14
2023-05-05T20:10:18.803Z,15
2023-05-05T20:15:15.823Z,13
2023-05-05T20:20:19.066Z,11
2023-05-05T20:25:18.807Z,12
2023-05-05T20:30:18.773Z,13
2023-05-05T20:35:15.644Z,9
2023-05-05T20:40:18.796Z,11
2023-05-05T20:45:15.875Z,11
2023-05-05T20:50:15.880Z,11
2023-05-05T20:55:15.916Z,12
2023-05-05T21:00:18.880Z,12
2023-05-05T21:05:18.783Z,11
2023-05-05T21:10:18.818Z,8
2023-05-05T21:15:15.709Z,12
2023-05-05T21:20:15.854Z,9
2023-05-05T21:25:18.873Z,8
2023-05-05T21:30:18.917Z,7
2023-05-05T21:35:15.880Z,11
2023-05-05T21:40:18.874Z,11
2023-05-05T21:45:15.891Z,7
2023-05-05T21:50:15.888Z,11
2023-05-05T21:55:18.916Z,6
2023-05-05T22:00:18.896Z,11
2023-05-05T22:05:15.877Z,8
2023-05-05T22:10:18.913Z,7
2023-05-05T22:15:15.851Z,7
2023-05-05T22:20:18.841Z,8
2023-05-05T22:25:18.823Z,5
2023-05-05T22:30:18.826Z,6
2023-05-05T22:35:15.704Z,5
2023-05-05T22:40:18.885Z,5
2023-05-05T22:45:15.880Z,6
2023-05-05T22:50:18.876Z,5
2023-05-05T22:55:18.813Z,4
2023-05-05T23:00:18.826Z,2
2023-05-05T23:05:15.924Z,5
2023-05-05T23:10:18.884Z,5
2023-05-05T23:15:18.844Z,4
2023-05-05T23:20:15.945Z,2
2023-05-05T23:25:18.888Z,4
2023-05-05T23:30:18.962Z,4
2023-05-05T23:35:16.014Z,2
2023-05-05T23:40:15.956Z,2
2023-05-05T23:45:18.090Z,2
2023-05-05T23:50:18.859Z,2
2023-05-05T23:55:18.866Z,2
